sensor_id;sensor_type;location;lat;lon;timestamp;temperature;humidity
29939;DHT22;16799;50.844;5.304;2023-08-08T00:01:02;13.00;99.90
29939;DHT22;16799;50.844;5.304;2023-08-08T00:03:27;13.10;99.90
29939;DHT22;16799;50.844;5.304;2023-08-08T00:05:53;13.10;99.90
29939;DHT22;16799;50.844;5.304;2023-08-08T00:08:19;13.00;99.90
29939;DHT22;16799;50.844;5.304;2023-08-08T00:10:44;13.00;99.90
29939;DHT22;16799;50.844;5.304;2023-08-08T00:13:10;13.00;99.90
29939;DHT22;16799;50.844;5.304;2023-08-08T00:15:35;13.00;99.90
29939;DHT22;16799;50.844;5.304;2023-08-08T00:18:02;13.00;99.90
29939;DHT22;16799;50.844;5.304;2023-08-08T00:20:27;13.00;99.90
29939;DHT22;16799;50.844;5.304;2023-08-08T00:22:53;13.00;99.90
29939;DHT22;16799;50.844;5.304;2023-08-08T00:25:19;13.00;99.90
29939;DHT22;16799;50.844;5.304;2023-08-08T00:27:44;13.00;99.90
29939;DHT22;16799;50.844;5.304;2023-08-08T00:30:11;13.10;99.90
29939;DHT22;16799;50.844;5.304;2023-08-08T00:32:38;13.00;99.90
29939;DHT22;16799;50.844;5.304;2023-08-08T00:35:04;13.10;99.90
29939;DHT22;16799;50.844;5.304;2023-08-08T00:37:30;13.10;99.90
29939;DHT22;16799;50.844;5.304;2023-08-08T00:39:56;13.00;99.90
29939;DHT22;16799;50.844;5.304;2023-08-08T00:42:22;13.00;99.90
29939;DHT22;16799;50.844;5.304;2023-08-08T00:44:48;13.00;99.90
29939;DHT22;16799;50.844;5.304;2023-08-08T00:47:13;12.90;99.90
29939;DHT22;16799;50.844;5.304;2023-08-08T00:49:39;12.90;99.90
29939;DHT22;16799;50.844;5.304;2023-08-08T00:52:06;13.00;99.90
29939;DHT22;16799;50.844;5.304;2023-08-08T00:54:31;12.90;99.90
29939;DHT22;16799;50.844;5.304;2023-08-08T00:56:57;12.80;99.90
29939;DHT22;16799;50.844;5.304;2023-08-08T00:59:23;12.90;99.90
29939;DHT22;16799;50.844;5.304;2023-08-08T01:01:49;12.90;99.90
29939;DHT22;16799;50.844;5.304;2023-08-08T01:04:16;12.90;99.90
29939;DHT22;16799;50.844;5.304;2023-08-08T01:06:55;12.80;99.90
29939;DHT22;16799;50.844;5.304;2023-08-08T01:09:45;12.90;99.90
29939;DHT22;16799;50.844;5.304;2023-08-08T01:12:13;12.80;99.90
29939;DHT22;16799;50.844;5.304;2023-08-08T01:14:42;12.80;99.90
29939;DHT22;16799;50.844;5.304;2023-08-08T01:17:08;12.80;99.90
29939;DHT22;16799;50.844;5.304;2023-08-08T01:19:35;12.80;99.90
29939;DHT22;16799;50.844;5.304;2023-08-08T01:22:04;12.80;99.90
29939;DHT22;16799;50.844;5.304;2023-08-08T01:24:30;12.80;99.90
29939;DHT22;16799;50.844;5.304;2023-08-08T01:27:00;12.80;99.90
29939;DHT22;16799;50.844;5.304;2023-08-08T01:29:27;12.80;99.90
29939;DHT22;16799;50.844;5.304;2023-08-08T01:31:52;12.80;99.90
29939;DHT22;16799;50.844;5.304;2023-08-08T01:34:18;12.80;99.90
29939;DHT22;16799;50.844;5.304;2023-08-08T01:37:09;12.80;99.90
29939;DHT22;16799;50.844;5.304;2023-08-08T01:39:37;12.80;99.90
29939;DHT22;16799;50.844;5.304;2023-08-08T01:42:04;12.70;99.90
29939;DHT22;16799;50.844;5.304;2023-08-08T01:44:31;12.80;99.90
29939;DHT22;16799;50.844;5.304;2023-08-08T01:46:58;12.70;99.90
29939;DHT22;16799;50.844;5.304;2023-08-08T01:49:24;12.60;99.90
29939;DHT22;16799;50.844;5.304;2023-08-08T01:51:49;12.70;99.90
29939;DHT22;16799;50.844;5.304;2023-08-08T01:54:16;12.70;99.90
29939;DHT22;16799;50.844;5.304;2023-08-08T01:56:41;12.70;99.90
29939;DHT22;16799;50.844;5.304;2023-08-08T01:59:07;12.70;99.90
29939;DHT22;16799;50.844;5.304;2023-08-08T02:01:33;12.70;99.90
29939;DHT22;16799;50.844;5.304;2023-08-08T02:03:58;12.80;99.90
29939;DHT22;16799;50.844;5.304;2023-08-08T02:06:24;12.70;99.90
29939;DHT22;16799;50.844;5.304;2023-08-08T02:08:49;12.70;99.90
29939;DHT22;16799;50.844;5.304;2023-08-08T02:11:15;12.70;99.90
29939;DHT22;16799;50.844;5.304;2023-08-08T02:13:41;12.70;99.90
29939;DHT22;16799;50.844;5.304;2023-08-08T02:16:06;12.70;99.90
29939;DHT22;16799;50.844;5.304;2023-08-08T02:18:32;12.70;99.90
29939;DHT22;16799;50.844;5.304;2023-08-08T02:20:57;12.70;99.90
29939;DHT22;16799;50.844;5.304;2023-08-08T02:23:23;12.70;99.90
29939;DHT22;16799;50.844;5.304;2023-08-08T02:25:49;12.70;99.90
29939;DHT22;16799;50.844;5.304;2023-08-08T02:28:14;12.70;99.90
29939;DHT22;16799;50.844;5.304;2023-08-08T02:30:40;12.60;99.90
29939;DHT22;16799;50.844;5.304;2023-08-08T02:33:06;12.60;99.90
29939;DHT22;16799;50.844;5.304;2023-08-08T02:35:32;12.60;99.90
29939;DHT22;16799;50.844;5.304;2023-08-08T02:37:57;12.60;99.90
29939;DHT22;16799;50.844;5.304;2023-08-08T02:40:23;12.50;99.90
29939;DHT22;16799;50.844;5.304;2023-08-08T02:42:49;12.50;99.90
29939;DHT22;16799;50.844;5.304;2023-08-08T02:45:15;12.50;99.90
29939;DHT22;16799;50.844;5.304;2023-08-08T02:47:41;12.50;99.90
29939;DHT22;16799;50.844;5.304;2023-08-08T02:50:07;12.50;99.90
29939;DHT22;16799;50.844;5.304;2023-08-08T02:52:33;12.50;99.90
29939;DHT22;16799;50.844;5.304;2023-08-08T02:54:58;12.50;99.90
29939;DHT22;16799;50.844;5.304;2023-08-08T02:57:25;12.40;99.90
29939;DHT22;16799;50.844;5.304;2023-08-08T02:59:51;12.40;99.90
29939;DHT22;16799;50.844;5.304;2023-08-08T03:02:16;12.40;99.90
29939;DHT22;16799;50.844;5.304;2023-08-08T03:04:42;12.40;99.90
29939;DHT22;16799;50.844;5.304;2023-08-08T03:07:07;12.40;99.90
29939;DHT22;16799;50.844;5.304;2023-08-08T03:09:33;12.40;99.90
29939;DHT22;16799;50.844;5.304;2023-08-08T03:11:59;12.30;99.90
29939;DHT22;16799;50.844;5.304;2023-08-08T03:14:24;12.30;99.90
29939;DHT22;16799;50.844;5.304;2023-08-08T03:16:50;12.40;99.90
29939;DHT22;16799;50.844;5.304;2023-08-08T03:19:16;12.40;99.90
29939;DHT22;16799;50.844;5.304;2023-08-08T03:21:41;12.30;99.90
29939;DHT22;16799;50.844;5.304;2023-08-08T03:24:07;12.40;99.90
29939;DHT22;16799;50.844;5.304;2023-08-08T03:26:32;12.40;99.90
29939;DHT22;16799;50.844;5.304;2023-08-08T03:28:58;12.40;99.90
29939;DHT22;16799;50.844;5.304;2023-08-08T03:31:24;12.40;99.90
29939;DHT22;16799;50.844;5.304;2023-08-08T03:33:51;12.30;99.90
29939;DHT22;16799;50.844;5.304;2023-08-08T03:36:17;12.30;99.90
29939;DHT22;16799;50.844;5.304;2023-08-08T03:38:42;12.20;99.90
29939;DHT22;16799;50.844;5.304;2023-08-08T03:41:11;12.30;99.90
29939;DHT22;16799;50.844;5.304;2023-08-08T03:43:38;12.20;99.90
29939;DHT22;16799;50.844;5.304;2023-08-08T03:46:04;12.20;99.90
29939;DHT22;16799;50.844;5.304;2023-08-08T03:48:29;12.20;99.90
29939;DHT22;16799;50.844;5.304;2023-08-08T03:50:55;12.20;99.90
29939;DHT22;16799;50.844;5.304;2023-08-08T03:53:20;12.20;99.90
29939;DHT22;16799;50.844;5.304;2023-08-08T03:55:46;12.20;99.90
29939;DHT22;16799;50.844;5.304;2023-08-08T03:58:12;12.20;99.90
29939;DHT22;16799;50.844;5.304;2023-08-08T04:00:37;12.20;99.90
29939;DHT22;16799;50.844;5.304;2023-08-08T04:03:04;12.20;99.90
29939;DHT22;16799;50.844;5.304;2023-08-08T04:05:30;12.10;99.90
29939;DHT22;16799;50.844;5.304;2023-08-08T04:07:56;12.10;99.90
29939;DHT22;16799;50.844;5.304;2023-08-08T04:10:21;12.10;99.90
29939;DHT22;16799;50.844;5.304;2023-08-08T04:12:47;12.10;99.90
29939;DHT22;16799;50.844;5.304;2023-08-08T04:15:12;12.20;99.90
29939;DHT22;16799;50.844;5.304;2023-08-08T04:17:38;12.20;99.90
29939;DHT22;16799;50.844;5.304;2023-08-08T04:20:04;12.20;99.90
29939;DHT22;16799;50.844;5.304;2023-08-08T04:22:31;12.10;99.90
29939;DHT22;16799;50.844;5.304;2023-08-08T04:24:57;12.20;99.90
29939;DHT22;16799;50.844;5.304;2023-08-08T04:27:23;12.10;99.90
29939;DHT22;16799;50.844;5.304;2023-08-08T04:29:48;12.10;99.90
29939;DHT22;16799;50.844;5.304;2023-08-08T04:32:14;12.10;99.90
29939;DHT22;16799;50.844;5.304;2023-08-08T04:34:39;12.10;99.90
29939;DHT22;16799;50.844;5.304;2023-08-08T04:37:05;12.20;99.90
29939;DHT22;16799;50.844;5.304;2023-08-08T04:39:31;12.10;99.90
29939;DHT22;16799;50.844;5.304;2023-08-08T04:41:56;12.10;99.90
29939;DHT22;16799;50.844;5.304;2023-08-08T04:44:22;12.10;99.90
29939;DHT22;16799;50.844;5.304;2023-08-08T04:46:47;12.20;99.90
29939;DHT22;16799;50.844;5.304;2023-08-08T04:49:13;12.20;99.90
29939;DHT22;16799;50.844;5.304;2023-08-08T04:51:39;12.20;99.90
29939;DHT22;16799;50.844;5.304;2023-08-08T04:54:04;12.20;99.90
29939;DHT22;16799;50.844;5.304;2023-08-08T04:56:30;12.20;99.90
29939;DHT22;16799;50.844;5.304;2023-08-08T04:58:56;12.20;99.90
29939;DHT22;16799;50.844;5.304;2023-08-08T05:01:21;12.20;99.90
29939;DHT22;16799;50.844;5.304;2023-08-08T05:03:47;12.30;99.90
29939;DHT22;16799;50.844;5.304;2023-08-08T05:06:13;12.30;99.90
29939;DHT22;16799;50.844;5.304;2023-08-08T05:08:39;12.30;99.90
29939;DHT22;16799;50.844;5.304;2023-08-08T05:11:05;12.40;99.90
29939;DHT22;16799;50.844;5.304;2023-08-08T05:13:30;12.50;99.90
29939;DHT22;16799;50.844;5.304;2023-08-08T05:15:56;12.50;99.90
29939;DHT22;16799;50.844;5.304;2023-08-08T05:18:21;12.60;99.90
29939;DHT22;16799;50.844;5.304;2023-08-08T05:20:47;12.60;99.90
29939;DHT22;16799;50.844;5.304;2023-08-08T05:23:13;12.70;99.90
29939;DHT22;16799;50.844;5.304;2023-08-08T05:25:38;12.70;99.90
29939;DHT22;16799;50.844;5.304;2023-08-08T05:28:04;12.80;99.90
29939;DHT22;16799;50.844;5.304;2023-08-08T05:30:30;12.80;99.90
29939;DHT22;16799;50.844;5.304;2023-08-08T05:32:55;12.90;99.90
29939;DHT22;16799;50.844;5.304;2023-08-08T05:35:21;13.00;99.90
29939;DHT22;16799;50.844;5.304;2023-08-08T05:37:47;13.10;99.90
29939;DHT22;16799;50.844;5.304;2023-08-08T05:40:12;13.20;99.90
29939;DHT22;16799;50.844;5.304;2023-08-08T05:42:39;13.40;99.90
29939;DHT22;16799;50.844;5.304;2023-08-08T05:45:05;13.60;99.90
29939;DHT22;16799;50.844;5.304;2023-08-08T05:47:32;13.80;99.90
29939;DHT22;16799;50.844;5.304;2023-08-08T05:49:57;14.00;99.90
29939;DHT22;16799;50.844;5.304;2023-08-08T05:52:23;14.10;99.90
29939;DHT22;16799;50.844;5.304;2023-08-08T05:54:49;14.20;99.90
29939;DHT22;16799;50.844;5.304;2023-08-08T05:57:14;14.30;99.90
29939;DHT22;16799;50.844;5.304;2023-08-08T05:59:40;14.50;99.90
29939;DHT22;16799;50.844;5.304;2023-08-08T06:02:06;14.70;99.90
29939;DHT22;16799;50.844;5.304;2023-08-08T06:04:31;14.60;99.90
29939;DHT22;16799;50.844;5.304;2023-08-08T06:06:57;14.50;99.90
29939;DHT22;16799;50.844;5.304;2023-08-08T06:09:24;14.30;99.90
29939;DHT22;16799;50.844;5.304;2023-08-08T06:11:50;14.30;99.90
29939;DHT22;16799;50.844;5.304;2023-08-08T06:14:16;14.30;99.90
29939;DHT22;16799;50.844;5.304;2023-08-08T06:16:42;14.30;99.90
29939;DHT22;16799;50.844;5.304;2023-08-08T06:19:08;14.40;99.90
29939;DHT22;16799;50.844;5.304;2023-08-08T06:21:35;14.50;99.90
29939;DHT22;16799;50.844;5.304;2023-08-08T06:24:01;14.50;99.90
29939;DHT22;16799;50.844;5.304;2023-08-08T06:26:26;14.70;99.90
29939;DHT22;16799;50.844;5.304;2023-08-08T06:28:52;14.70;99.90
29939;DHT22;16799;50.844;5.304;2023-08-08T06:31:18;14.70;99.90
29939;DHT22;16799;50.844;5.304;2023-08-08T06:33:47;14.80;99.90
29939;DHT22;16799;50.844;5.304;2023-08-08T06:36:13;14.80;99.90
29939;DHT22;16799;50.844;5.304;2023-08-08T06:38:38;14.90;99.90
29939;DHT22;16799;50.844;5.304;2023-08-08T06:41:04;15.00;99.90
29939;DHT22;16799;50.844;5.304;2023-08-08T06:43:30;15.10;99.90
29939;DHT22;16799;50.844;5.304;2023-08-08T06:45:56;15.30;99.90
29939;DHT22;16799;50.844;5.304;2023-08-08T06:48:22;15.50;99.90
29939;DHT22;16799;50.844;5.304;2023-08-08T06:50:48;15.60;99.90
29939;DHT22;16799;50.844;5.304;2023-08-08T06:53:14;15.60;99.90
29939;DHT22;16799;50.844;5.304;2023-08-08T06:55:39;15.40;99.90
29939;DHT22;16799;50.844;5.304;2023-08-08T06:58:05;15.30;99.90
29939;DHT22;16799;50.844;5.304;2023-08-08T07:00:31;15.30;99.90
29939;DHT22;16799;50.844;5.304;2023-08-08T07:02:56;15.30;99.90
29939;DHT22;16799;50.844;5.304;2023-08-08T07:05:22;15.40;99.90
29939;DHT22;16799;50.844;5.304;2023-08-08T07:07:52;15.50;99.90
29939;DHT22;16799;50.844;5.304;2023-08-08T07:10:18;15.70;99.90
29939;DHT22;16799;50.844;5.304;2023-08-08T07:12:44;15.80;99.90
29939;DHT22;16799;50.844;5.304;2023-08-08T07:15:10;15.90;99.90
29939;DHT22;16799;50.844;5.304;2023-08-08T07:17:36;16.00;99.90
29939;DHT22;16799;50.844;5.304;2023-08-08T07:20:02;15.80;99.90
29939;DHT22;16799;50.844;5.304;2023-08-08T07:22:28;15.70;99.90
29939;DHT22;16799;50.844;5.304;2023-08-08T07:24:53;15.80;99.90
29939;DHT22;16799;50.844;5.304;2023-08-08T07:27:19;15.90;99.90
29939;DHT22;16799;50.844;5.304;2023-08-08T07:29:45;16.00;99.90
29939;DHT22;16799;50.844;5.304;2023-08-08T07:32:10;16.20;99.90
29939;DHT22;16799;50.844;5.304;2023-08-08T07:34:36;16.20;99.90
29939;DHT22;16799;50.844;5.304;2023-08-08T07:37:02;16.20;99.90
29939;DHT22;16799;50.844;5.304;2023-08-08T07:39:29;16.20;99.90
29939;DHT22;16799;50.844;5.304;2023-08-08T07:41:54;16.20;99.90
29939;DHT22;16799;50.844;5.304;2023-08-08T07:44:20;16.20;99.90
29939;DHT22;16799;50.844;5.304;2023-08-08T07:46:46;16.30;99.90
29939;DHT22;16799;50.844;5.304;2023-08-08T07:49:12;16.40;99.90
29939;DHT22;16799;50.844;5.304;2023-08-08T07:51:38;16.50;99.90
29939;DHT22;16799;50.844;5.304;2023-08-08T07:54:04;16.50;99.90
29939;DHT22;16799;50.844;5.304;2023-08-08T07:56:34;16.70;99.90
29939;DHT22;16799;50.844;5.304;2023-08-08T07:59:00;16.80;99.90
29939;DHT22;16799;50.844;5.304;2023-08-08T08:01:27;16.90;99.90
29939;DHT22;16799;50.844;5.304;2023-08-08T08:03:53;16.80;99.90
29939;DHT22;16799;50.844;5.304;2023-08-08T08:06:18;16.80;99.90
29939;DHT22;16799;50.844;5.304;2023-08-08T08:08:44;16.80;99.90
29939;DHT22;16799;50.844;5.304;2023-08-08T08:11:10;16.80;99.90
29939;DHT22;16799;50.844;5.304;2023-08-08T08:13:37;16.90;99.90
29939;DHT22;16799;50.844;5.304;2023-08-08T08:16:03;16.90;99.90
29939;DHT22;16799;50.844;5.304;2023-08-08T08:18:29;16.90;99.90
29939;DHT22;16799;50.844;5.304;2023-08-08T08:20:55;16.90;99.90
29939;DHT22;16799;50.844;5.304;2023-08-08T08:23:21;17.00;99.90
29939;DHT22;16799;50.844;5.304;2023-08-08T08:25:47;17.10;99.90
29939;DHT22;16799;50.844;5.304;2023-08-08T08:28:15;17.20;99.90
29939;DHT22;16799;50.844;5.304;2023-08-08T08:30:42;17.40;99.90
29939;DHT22;16799;50.844;5.304;2023-08-08T08:33:07;17.60;99.90
29939;DHT22;16799;50.844;5.304;2023-08-08T08:35:36;17.80;99.90
29939;DHT22;16799;50.844;5.304;2023-08-08T08:38:03;17.70;99.90
29939;DHT22;16799;50.844;5.304;2023-08-08T08:40:31;17.70;99.90
29939;DHT22;16799;50.844;5.304;2023-08-08T08:42:59;17.70;99.90
29939;DHT22;16799;50.844;5.304;2023-08-08T08:45:26;17.70;99.90
29939;DHT22;16799;50.844;5.304;2023-08-08T08:47:54;17.80;99.90
29939;DHT22;16799;50.844;5.304;2023-08-08T08:50:21;17.80;99.90
29939;DHT22;16799;50.844;5.304;2023-08-08T08:52:48;17.70;99.90
29939;DHT22;16799;50.844;5.304;2023-08-08T08:55:14;17.70;99.90
29939;DHT22;16799;50.844;5.304;2023-08-08T08:57:40;17.90;99.90
29939;DHT22;16799;50.844;5.304;2023-08-08T09:00:07;18.00;99.90
29939;DHT22;16799;50.844;5.304;2023-08-08T09:02:33;18.20;99.90
29939;DHT22;16799;50.844;5.304;2023-08-08T09:04:59;18.30;99.90
29939;DHT22;16799;50.844;5.304;2023-08-08T09:07:29;18.00;99.90
29939;DHT22;16799;50.844;5.304;2023-08-08T09:09:57;17.90;99.90
29939;DHT22;16799;50.844;5.304;2023-08-08T09:12:22;17.90;99.90
29939;DHT22;16799;50.844;5.304;2023-08-08T09:14:57;17.90;99.90
29939;DHT22;16799;50.844;5.304;2023-08-08T09:17:25;18.10;99.90
29939;DHT22;16799;50.844;5.304;2023-08-08T09:19:54;18.00;99.90
29939;DHT22;16799;50.844;5.304;2023-08-08T09:22:24;18.00;99.90
29939;DHT22;16799;50.844;5.304;2023-08-08T09:24:50;18.10;99.90
29939;DHT22;16799;50.844;5.304;2023-08-08T09:27:16;18.00;99.90
29939;DHT22;16799;50.844;5.304;2023-08-08T09:29:42;18.10;99.90
29939;DHT22;16799;50.844;5.304;2023-08-08T09:32:08;17.90;99.90
29939;DHT22;16799;50.844;5.304;2023-08-08T09:34:34;17.70;99.90
29939;DHT22;16799;50.844;5.304;2023-08-08T09:37:00;17.80;99.90
29939;DHT22;16799;50.844;5.304;2023-08-08T09:39:28;17.90;99.90
29939;DHT22;16799;50.844;5.304;2023-08-08T09:41:55;17.90;99.90
29939;DHT22;16799;50.844;5.304;2023-08-08T09:44:25;18.00;99.90
29939;DHT22;16799;50.844;5.304;2023-08-08T09:46:51;18.20;99.90
29939;DHT22;16799;50.844;5.304;2023-08-08T09:49:17;18.20;99.90
29939;DHT22;16799;50.844;5.304;2023-08-08T09:51:44;18.30;99.90
29939;DHT22;16799;50.844;5.304;2023-08-08T09:54:11;18.40;99.90
29939;DHT22;16799;50.844;5.304;2023-08-08T09:56:37;18.50;99.90
29939;DHT22;16799;50.844;5.304;2023-08-08T09:59:05;18.20;99.90
29939;DHT22;16799;50.844;5.304;2023-08-08T10:01:32;18.30;99.90
29939;DHT22;16799;50.844;5.304;2023-08-08T10:03:58;18.60;99.90
29939;DHT22;16799;50.844;5.304;2023-08-08T10:06:24;18.90;99.90
29939;DHT22;16799;50.844;5.304;2023-08-08T10:08:50;19.00;99.90
29939;DHT22;16799;50.844;5.304;2023-08-08T10:11:17;18.80;99.90
29939;DHT22;16799;50.844;5.304;2023-08-08T10:13:50;18.50;99.90
29939;DHT22;16799;50.844;5.304;2023-08-08T10:16:19;18.20;99.90
29939;DHT22;16799;50.844;5.304;2023-08-08T10:19:14;18.10;99.90
29939;DHT22;16799;50.844;5.304;2023-08-08T10:21:46;17.90;99.90
29939;DHT22;16799;50.844;5.304;2023-08-08T10:24:12;17.90;99.90
29939;DHT22;16799;50.844;5.304;2023-08-08T10:27:11;17.90;99.90
29939;DHT22;16799;50.844;5.304;2023-08-08T10:29:38;18.10;99.90
29939;DHT22;16799;50.844;5.304;2023-08-08T10:32:05;18.20;99.90
29939;DHT22;16799;50.844;5.304;2023-08-08T10:34:39;18.30;99.90
29939;DHT22;16799;50.844;5.304;2023-08-08T10:37:08;18.30;99.90
29939;DHT22;16799;50.844;5.304;2023-08-08T10:39:34;18.30;99.90
29939;DHT22;16799;50.844;5.304;2023-08-08T10:42:03;18.10;99.90
29939;DHT22;16799;50.844;5.304;2023-08-08T10:44:30;18.10;99.90
29939;DHT22;16799;50.844;5.304;2023-08-08T10:46:56;18.20;99.90
29939;DHT22;16799;50.844;5.304;2023-08-08T10:49:22;18.40;99.90
29939;DHT22;16799;50.844;5.304;2023-08-08T10:51:49;18.70;99.90
29939;DHT22;16799;50.844;5.304;2023-08-08T10:56:53;19.30;99.90
29939;DHT22;16799;50.844;5.304;2023-08-08T10:59:27;19.30;99.90
29939;DHT22;16799;50.844;5.304;2023-08-08T11:01:55;19.10;99.90
29939;DHT22;16799;50.844;5.304;2023-08-08T11:04:23;19.10;99.90
29939;DHT22;16799;50.844;5.304;2023-08-08T11:06:49;19.20;99.90
29939;DHT22;16799;50.844;5.304;2023-08-08T11:09:16;19.20;99.90
29939;DHT22;16799;50.844;5.304;2023-08-08T11:11:44;19.20;99.90
29939;DHT22;16799;50.844;5.304;2023-08-08T11:14:14;19.10;99.90
29939;DHT22;16799;50.844;5.304;2023-08-08T11:16:41;18.80;99.90
29939;DHT22;16799;50.844;5.304;2023-08-08T11:19:07;18.90;99.90
29939;DHT22;16799;50.844;5.304;2023-08-08T11:21:38;19.00;99.90
29939;DHT22;16799;50.844;5.304;2023-08-08T11:24:05;19.10;99.90
29939;DHT22;16799;50.844;5.304;2023-08-08T11:26:35;18.80;99.90
29939;DHT22;16799;50.844;5.304;2023-08-08T11:29:03;18.70;99.90
29939;DHT22;16799;50.844;5.304;2023-08-08T11:31:29;18.60;99.90
29939;DHT22;16799;50.844;5.304;2023-08-08T11:33:56;18.50;99.90
29939;DHT22;16799;50.844;5.304;2023-08-08T11:36:22;18.30;99.90
29939;DHT22;16799;50.844;5.304;2023-08-08T11:38:50;18.30;99.90
29939;DHT22;16799;50.844;5.304;2023-08-08T11:41:17;18.30;99.90
29939;DHT22;16799;50.844;5.304;2023-08-08T11:43:45;18.20;99.90
29939;DHT22;16799;50.844;5.304;2023-08-08T11:46:14;18.10;99.90
29939;DHT22;16799;50.844;5.304;2023-08-08T11:48:41;18.00;99.90
29939;DHT22;16799;50.844;5.304;2023-08-08T11:51:08;17.90;99.90
29939;DHT22;16799;50.844;5.304;2023-08-08T11:53:35;17.90;99.90
29939;DHT22;16799;50.844;5.304;2023-08-08T11:56:03;17.80;99.90
29939;DHT22;16799;50.844;5.304;2023-08-08T11:58:29;17.70;99.90
29939;DHT22;16799;50.844;5.304;2023-08-08T12:00:58;17.70;99.90
29939;DHT22;16799;50.844;5.304;2023-08-08T12:03:25;17.80;99.90
29939;DHT22;16799;50.844;5.304;2023-08-08T12:05:51;17.90;99.90
29939;DHT22;16799;50.844;5.304;2023-08-08T12:08:21;18.00;99.90
29939;DHT22;16799;50.844;5.304;2023-08-08T12:10:52;18.10;99.90
29939;DHT22;16799;50.844;5.304;2023-08-08T12:13:21;18.20;99.90
29939;DHT22;16799;50.844;5.304;2023-08-08T12:15:47;18.10;99.90
29939;DHT22;16799;50.844;5.304;2023-08-08T12:18:19;18.00;99.90
29939;DHT22;16799;50.844;5.304;2023-08-08T12:20:45;18.00;99.90
29939;DHT22;16799;50.844;5.304;2023-08-08T12:23:12;18.10;99.90
29939;DHT22;16799;50.844;5.304;2023-08-08T12:25:38;18.30;99.90
29939;DHT22;16799;50.844;5.304;2023-08-08T12:28:04;18.60;99.90
29939;DHT22;16799;50.844;5.304;2023-08-08T12:30:31;18.90;99.90
29939;DHT22;16799;50.844;5.304;2023-08-08T12:32:57;19.30;99.90
29939;DHT22;16799;50.844;5.304;2023-08-08T12:35:22;20.80;99.90
29939;DHT22;16799;50.844;5.304;2023-08-08T12:37:48;22.20;99.90
29939;DHT22;16799;50.844;5.304;2023-08-08T12:40:14;21.10;99.90
29939;DHT22;16799;50.844;5.304;2023-08-08T12:42:39;20.10;99.90
29939;DHT22;16799;50.844;5.304;2023-08-08T12:45:06;19.40;99.90
29939;DHT22;16799;50.844;5.304;2023-08-08T12:47:32;19.10;99.90
29939;DHT22;16799;50.844;5.304;2023-08-08T12:50:02;19.50;99.90
29939;DHT22;16799;50.844;5.304;2023-08-08T12:52:29;21.50;99.90
29939;DHT22;16799;50.844;5.304;2023-08-08T12:54:55;22.70;99.90
29939;DHT22;16799;50.844;5.304;2023-08-08T12:57:20;22.80;99.90
29939;DHT22;16799;50.844;5.304;2023-08-08T12:59:46;22.00;99.90
29939;DHT22;16799;50.844;5.304;2023-08-08T13:02:12;21.20;99.90
29939;DHT22;16799;50.844;5.304;2023-08-08T13:04:38;20.40;99.90
29939;DHT22;16799;50.844;5.304;2023-08-08T13:07:03;19.70;99.90
29939;DHT22;16799;50.844;5.304;2023-08-08T13:09:29;19.50;99.90
29939;DHT22;16799;50.844;5.304;2023-08-08T13:11:55;19.20;99.90
29939;DHT22;16799;50.844;5.304;2023-08-08T13:14:21;19.10;99.90
29939;DHT22;16799;50.844;5.304;2023-08-08T13:16:46;19.10;99.90
29939;DHT22;16799;50.844;5.304;2023-08-08T13:19:12;19.00;99.90
29939;DHT22;16799;50.844;5.304;2023-08-08T13:21:38;19.00;99.90
29939;DHT22;16799;50.844;5.304;2023-08-08T13:24:05;19.10;99.90
29939;DHT22;16799;50.844;5.304;2023-08-08T13:26:31;19.80;99.90
29939;DHT22;16799;50.844;5.304;2023-08-08T13:28:56;20.40;99.90
29939;DHT22;16799;50.844;5.304;2023-08-08T13:31:22;20.60;99.90
29939;DHT22;16799;50.844;5.304;2023-08-08T13:33:48;21.60;99.90
29939;DHT22;16799;50.844;5.304;2023-08-08T13:36:14;22.00;99.90
29939;DHT22;16799;50.844;5.304;2023-08-08T13:38:40;22.10;99.90
29939;DHT22;16799;50.844;5.304;2023-08-08T13:41:06;23.50;99.90
29939;DHT22;16799;50.844;5.304;2023-08-08T13:43:31;24.30;96.00
29939;DHT22;16799;50.844;5.304;2023-08-08T13:45:57;23.30;98.20
29939;DHT22;16799;50.844;5.304;2023-08-08T13:48:23;23.00;99.90
29939;DHT22;16799;50.844;5.304;2023-08-08T13:50:50;23.00;99.90
29939;DHT22;16799;50.844;5.304;2023-08-08T13:53:16;22.90;98.50
29939;DHT22;16799;50.844;5.304;2023-08-08T13:55:41;22.20;99.90
29939;DHT22;16799;50.844;5.304;2023-08-08T13:58:09;21.90;99.90
29939;DHT22;16799;50.844;5.304;2023-08-08T14:00:35;22.30;99.90
29939;DHT22;16799;50.844;5.304;2023-08-08T14:03:01;22.70;99.90
29939;DHT22;16799;50.844;5.304;2023-08-08T14:05:27;22.10;99.90
29939;DHT22;16799;50.844;5.304;2023-08-08T14:07:54;21.50;99.90
29939;DHT22;16799;50.844;5.304;2023-08-08T14:10:20;21.30;99.90
29939;DHT22;16799;50.844;5.304;2023-08-08T14:12:46;21.70;99.90
29939;DHT22;16799;50.844;5.304;2023-08-08T14:15:11;21.70;99.90
29939;DHT22;16799;50.844;5.304;2023-08-08T14:17:37;21.50;99.90
29939;DHT22;16799;50.844;5.304;2023-08-08T14:20:03;21.40;99.90
29939;DHT22;16799;50.844;5.304;2023-08-08T14:22:30;20.90;99.90
29939;DHT22;16799;50.844;5.304;2023-08-08T14:24:55;20.50;99.90
29939;DHT22;16799;50.844;5.304;2023-08-08T14:27:22;20.50;99.90
29939;DHT22;16799;50.844;5.304;2023-08-08T14:29:48;20.80;99.90
29939;DHT22;16799;50.844;5.304;2023-08-08T14:32:14;21.20;99.90
29939;DHT22;16799;50.844;5.304;2023-08-08T14:34:40;21.70;99.90
29939;DHT22;16799;50.844;5.304;2023-08-08T14:37:06;22.10;99.90
29939;DHT22;16799;50.844;5.304;2023-08-08T14:39:31;21.90;99.90
29939;DHT22;16799;50.844;5.304;2023-08-08T14:41:57;21.50;99.90
29939;DHT22;16799;50.844;5.304;2023-08-08T14:44:23;21.40;99.90
29939;DHT22;16799;50.844;5.304;2023-08-08T14:46:49;21.00;99.90
29939;DHT22;16799;50.844;5.304;2023-08-08T14:49:15;20.70;99.90
29939;DHT22;16799;50.844;5.304;2023-08-08T14:51:40;20.50;99.90
29939;DHT22;16799;50.844;5.304;2023-08-08T14:54:06;20.60;99.90
29939;DHT22;16799;50.844;5.304;2023-08-08T14:56:32;20.70;99.90
29939;DHT22;16799;50.844;5.304;2023-08-08T14:58:57;20.60;99.90
29939;DHT22;16799;50.844;5.304;2023-08-08T15:01:23;21.00;99.90
29939;DHT22;16799;50.844;5.304;2023-08-08T15:03:50;21.30;99.90
29939;DHT22;16799;50.844;5.304;2023-08-08T15:06:16;21.20;99.90
29939;DHT22;16799;50.844;5.304;2023-08-08T15:08:42;20.90;99.90
29939;DHT22;16799;50.844;5.304;2023-08-08T15:11:08;20.90;99.90
29939;DHT22;16799;50.844;5.304;2023-08-08T15:13:34;20.70;99.90
29939;DHT22;16799;50.844;5.304;2023-08-08T15:16:00;20.70;99.90
29939;DHT22;16799;50.844;5.304;2023-08-08T15:18:26;20.70;99.90
29939;DHT22;16799;50.844;5.304;2023-08-08T15:20:51;20.70;99.90
29939;DHT22;16799;50.844;5.304;2023-08-08T15:23:17;20.60;99.90
29939;DHT22;16799;50.844;5.304;2023-08-08T15:25:43;20.40;99.90
29939;DHT22;16799;50.844;5.304;2023-08-08T15:28:09;20.30;99.90